Time;durP1;ratioP1;P1;durP2;ratioP2;P2;SDS_P1;SDS_P2;PMS_P1;PMS_P2;Temp;Humidity;BMP_temperature;BMP_pressure;BME280_temperature;BME280_humidity;BME280_pressure;Samples;Min_cycle;Max_cycle;Signal;HPM_P1;HPM_P2
2022/09/14 00:01:12;;;;;;;3.10;2.20;;;23.70;67.10;;;;;;4925046;28;92173;-81
2022/09/14 00:03:38;;;;;;;4.70;2.13;;;23.70;67.30;;;;;;4922429;28;92008;-82
2022/09/14 00:06:09;;;;;;;2.50;2.10;;;23.70;67.30;;;;;;4924966;28;92753;-82
2022/09/14 00:08:36;;;;;;;2.40;1.98;;;23.60;67.50;;;;;;4924717;28;93011;-82
2022/09/14 00:11:10;;;;;;;2.28;2.00;;;23.60;67.50;;;;;;4924921;28;92883;-81
2022/09/14 00:13:38;;;;;;;2.40;2.20;;;23.60;67.40;;;;;;4924798;28;91987;-81
2022/09/14 00:16:06;;;;;;;4.90;2.15;;;23.60;67.70;;;;;;4923512;28;94157;-81
2022/09/14 00:18:33;;;;;;;11.15;2.65;;;23.60;67.60;;;;;;4925173;28;93509;-82
2022/09/14 00:21:05;;;;;;;2.55;2.25;;;23.60;67.60;;;;;;4923549;28;91961;-82
2022/09/14 00:23:30;;;;;;;4.68;2.42;;;23.50;67.60;;;;;;4922368;28;92052;-82
2022/09/14 00:26:02;;;;;;;3.50;2.10;;;23.60;67.60;;;;;;4923776;28;93260;-82
2022/09/14 00:28:28;;;;;;;3.03;2.17;;;23.60;67.80;;;;;;4924352;28;94404;-81
2022/09/14 00:30:53;;;;;;;2.42;1.98;;;23.60;67.60;;;;;;4922376;28;93215;-82
2022/09/14 00:33:19;;;;;;;2.85;2.08;;;23.60;67.70;;;;;;4923363;28;91729;-82
2022/09/14 00:35:44;;;;;;;2.10;1.80;;;23.60;67.60;;;;;;4923477;28;94279;-82
2022/09/14 00:38:12;;;;;;;2.47;2.28;;;23.60;67.60;;;;;;4923985;28;92934;-82
2022/09/14 00:40:38;;;;;;;2.67;2.13;;;23.60;67.70;;;;;;4924854;28;92876;-81
2022/09/14 00:43:11;;;;;;;4.78;2.25;;;23.50;67.60;;;;;;4923354;28;92025;-81
2022/09/14 00:45:37;;;;;;;2.38;2.17;;;23.60;67.30;;;;;;4922385;28;93352;-82
2022/09/14 00:48:03;;;;;;;2.28;2.17;;;23.60;67.10;;;;;;4923742;28;92786;-82
2022/09/14 00:50:30;;;;;;;3.90;2.53;;;23.60;67.20;;;;;;4923065;28;91992;-82
2022/09/14 00:52:55;;;;;;;2.50;2.13;;;23.50;67.20;;;;;;4924719;28;92433;-82
2022/09/14 00:55:23;;;;;;;2.13;2.03;;;23.50;67.20;;;;;;4923274;28;93047;-82
2022/09/14 00:57:51;;;;;;;3.85;2.38;;;23.60;67.40;;;;;;4925365;28;92021;-81
2022/09/14 01:00:21;;;;;;;2.92;2.25;;;23.60;67.10;;;;;;4924766;28;92556;-82
2022/09/14 01:02:46;;;;;;;;;;;23.50;67.00;;;;;;4924361;28;92214;-81
2022/09/14 01:05:13;;;;;;;2.20;2.00;;;23.50;66.90;;;;;;4924759;28;95947;-82
2022/09/14 01:08:08;;;;;;;2.30;2.10;;;23.50;66.90;;;;;;4924531;28;94303;-81
2022/09/14 01:11:23;;;;;;;2.40;2.15;;;23.50;66.90;;;;;;4924301;28;92906;-82
2022/09/14 01:13:59;;;;;;;2.13;1.83;;;23.50;66.90;;;;;;4920829;28;92637;-82
2022/09/14 01:17:15;;;;;;;3.08;2.33;;;23.50;67.00;;;;;;4920099;28;93650;-82
2022/09/14 01:20:05;;;;;;;2.17;1.85;;;23.50;66.90;;;;;;4852567;28;92568;-81
2022/09/14 01:23:16;;;;;;;2.65;1.80;;;23.50;66.80;;;;;;4861274;28;92600;-82
2022/09/14 01:26:10;;;;;;;2.85;2.03;;;23.50;66.80;;;;;;4864104;28;92030;-81
2022/09/14 01:28:54;;;;;;;3.47;2.00;;;23.50;66.80;;;;;;4846299;28;95194;-82
2022/09/14 01:31:33;;;;;;;2.45;2.05;;;23.50;66.70;;;;;;4861939;28;92423;-82
2022/09/14 01:34:02;;;;;;;2.15;1.90;;;23.50;66.70;;;;;;4861712;28;93890;-81
2022/09/14 01:36:31;;;;;;;2.70;2.00;;;23.50;66.60;;;;;;4863244;28;92600;-81
2022/09/14 01:38:57;;;;;;;2.33;1.90;;;23.50;66.60;;;;;;4861406;28;98079;-82
2022/09/14 01:41:29;;;;;;;2.10;1.90;;;23.40;66.50;;;;;;4864718;28;93590;-81
2022/09/14 01:44:04;;;;;;;2.13;1.85;;;23.50;66.40;;;;;;4864793;28;92149;-82
2022/09/14 01:46:46;;;;;;;2.22;2.03;;;23.40;66.60;;;;;;4864499;28;93108;-82
2022/09/14 01:49:24;;;;;;;2.13;1.92;;;23.50;66.40;;;;;;4866932;28;94720;-81
2022/09/14 01:51:55;;;;;;;2.88;2.00;;;23.50;66.40;;;;;;4881033;28;96648;-82
2022/09/14 01:54:41;;;;;;;2.30;2.10;;;23.40;66.30;;;;;;4884163;28;92166;-81
2022/09/14 01:57:21;;;;;;;2.15;1.67;;;23.50;66.60;;;;;;4923220;28;92397;-81
2022/09/14 01:59:49;;;;;;;2.45;1.95;;;23.40;66.50;;;;;;4921663;28;94526;-82
2022/09/14 02:02:38;;;;;;;1.80;1.70;;;23.40;66.40;;;;;;4924963;28;92643;-81
2022/09/14 02:05:12;;;;;;;3.50;2.05;;;23.40;66.30;;;;;;4926265;28;92561;-81
2022/09/14 02:07:38;;;;;;;2.53;1.90;;;23.50;66.30;;;;;;4925778;28;92133;-82
2022/09/14 02:10:08;;;;;;;1.80;1.70;;;23.40;66.30;;;;;;4924968;28;93345;-82
2022/09/14 02:12:34;;;;;;;2.03;1.83;;;23.50;66.20;;;;;;4927037;28;93815;-82
2022/09/14 02:14:59;;;;;;;3.25;2.15;;;23.40;66.10;;;;;;4925676;28;92250;-81
2022/09/14 02:17:25;;;;;;;3.47;2.40;;;23.50;66.10;;;;;;4926011;28;91847;-82
2022/09/14 02:19:55;;;;;;;2.97;2.10;;;23.50;66.10;;;;;;4957015;28;96566;-82
2022/09/14 02:22:22;;;;;;;2.10;1.90;;;23.50;66.00;;;;;;4925990;28;100589;-82
2022/09/14 02:24:48;;;;;;;2.05;1.88;;;23.40;65.90;;;;;;4924312;28;93511;-82
2022/09/14 02:27:13;;;;;;;2.13;1.80;;;23.50;66.10;;;;;;4926644;28;92204;-81
2022/09/14 02:29:39;;;;;;;1.80;1.70;;;23.40;66.00;;;;;;4926462;28;92828;-81
2022/09/14 02:32:08;;;;;;;2.65;1.90;;;23.40;65.90;;;;;;4925571;28;92786;-82
2022/09/14 02:35:16;;;;;;;1.73;1.63;;;23.40;66.00;;;;;;4925757;28;92555;-81
2022/09/14 02:38:02;;;;;;;2.83;1.92;;;23.40;66.00;;;;;;4933032;28;92167;-82
2022/09/14 02:40:55;;;;;;;2.22;2.00;;;23.40;65.70;;;;;;4932774;28;92953;-82
2022/09/14 02:43:27;;;;;;;2.00;1.83;;;23.40;65.80;;;;;;4875629;28;93212;-82
2022/09/14 02:46:20;;;;;;;2.03;1.83;;;23.40;65.90;;;;;;4858626;28;92688;-81
2022/09/14 02:49:13;;;;;;;2.22;2.03;;;23.40;65.90;;;;;;4874916;28;92639;-81
2022/09/14 02:52:01;;;;;;;1.60;1.50;;;23.40;66.00;;;;;;4874086;28;94586;-81
2022/09/14 02:54:54;;;;;;;2.05;1.90;;;23.40;65.80;;;;;;4874783;28;94433;-82
2022/09/14 02:57:20;;;;;;;2.22;2.03;;;23.40;65.90;;;;;;4803551;29;92818;-81
2022/09/14 02:59:45;;;;;;;2.38;1.90;;;23.40;65.90;;;;;;4818864;29;92314;-82
2022/09/14 03:02:11;;;;;;;1.60;1.50;;;23.40;65.90;;;;;;4818914;29;93504;-82
2022/09/14 03:04:36;;;;;;;2.22;1.83;;;23.40;65.60;;;;;;4818259;29;92648;-82
2022/09/14 03:07:02;;;;;;;2.75;1.92;;;23.40;65.70;;;;;;4818345;29;92463;-82
2022/09/14 03:09:27;;;;;;;1.92;1.70;;;23.40;65.80;;;;;;4819539;29;91565;-81
2022/09/14 03:11:53;;;;;;;2.00;1.80;;;23.40;65.80;;;;;;4817722;29;93754;-82
2022/09/14 03:14:19;;;;;;;2.15;1.95;;;23.40;65.80;;;;;;4818178;29;93825;-82
2022/09/14 03:16:44;;;;;;;2.10;1.90;;;23.40;65.70;;;;;;4818255;29;93242;-82
2022/09/14 03:19:11;;;;;;;2.10;1.90;;;23.30;65.70;;;;;;4817812;29;92400;-82
2022/09/14 03:21:38;;;;;;;1.73;1.60;;;23.40;65.70;;;;;;4882484;28;93479;-81
2022/09/14 03:24:04;;;;;;;1.90;1.70;;;23.30;65.50;;;;;;4885673;28;93072;-82
2022/09/14 03:26:29;;;;;;;2.40;1.92;;;23.30;65.70;;;;;;4884539;28;92791;-82
2022/09/14 03:28:57;;;;;;;1.65;1.55;;;23.30;65.70;;;;;;4884230;28;92611;-82
2022/09/14 03:31:24;;;;;;;1.55;1.45;;;23.40;65.70;;;;;;4884868;28;93034;-81
2022/09/14 03:33:54;;;;;;;1.80;1.70;;;23.40;65.60;;;;;;4893639;28;93320;-81
2022/09/14 03:36:20;;;;;;;2.35;1.85;;;23.40;65.60;;;;;;4927225;28;92618;-82
2022/09/14 03:38:47;;;;;;;1.60;1.50;;;23.30;65.50;;;;;;4924270;28;92025;-81
2022/09/14 03:41:14;;;;;;;1.77;1.60;;;23.30;65.40;;;;;;4954929;28;100519;-80
2022/09/14 03:43:41;;;;;;;1.80;1.70;;;23.30;65.50;;;;;;4924152;28;94322;-82
2022/09/14 03:46:09;;;;;;;1.85;1.75;;;23.30;65.50;;;;;;4925676;28;92333;-82
2022/09/14 03:48:35;;;;;;;1.73;1.63;;;23.30;65.40;;;;;;4926029;28;92291;-81
2022/09/14 03:51:02;;;;;;;1.70;1.60;;;23.30;65.50;;;;;;4924786;28;93505;-81
2022/09/14 03:53:29;;;;;;;2.03;1.70;;;23.30;65.40;;;;;;4923687;28;93896;-81
2022/09/14 03:55:54;;;;;;;2.45;1.77;;;23.30;65.40;;;;;;4924889;28;92567;-81
2022/09/14 03:58:20;;;;;;;1.92;1.73;;;23.30;65.40;;;;;;4925790;28;91657;-81
2022/09/14 04:00:45;;;;;;;2.25;1.70;;;23.30;65.40;;;;;;4923874;28;93092;-82
2022/09/14 04:03:11;;;;;;;1.48;1.38;;;23.30;65.40;;;;;;4925947;28;92309;-81
2022/09/14 04:05:37;;;;;;;1.70;1.60;;;23.30;65.30;;;;;;4923098;28;93825;-82
2022/09/14 04:08:02;;;;;;;2.03;1.83;;;23.30;65.20;;;;;;4924184;28;92325;-81
2022/09/14 04:10:28;;;;;;;1.45;1.35;;;23.30;65.20;;;;;;4923708;28;92734;-82
2022/09/14 04:12:53;;;;;;;1.80;1.70;;;23.30;65.20;;;;;;4923988;28;93547;-82
2022/09/14 04:15:19;;;;;;;1.83;1.60;;;23.30;65.50;;;;;;4926312;28;92734;-82
2022/09/14 04:17:45;;;;;;;2.95;1.90;;;23.30;65.30;;;;;;4924134;28;92176;-82
2022/09/14 04:20:10;;;;;;;2.00;1.80;;;23.30;65.40;;;;;;4924908;28;93207;-82
2022/09/14 04:22:36;;;;;;;1.55;1.45;;;23.30;65.30;;;;;;4925529;28;93107;-82
2022/09/14 04:25:01;;;;;;;1.50;1.40;;;23.30;65.30;;;;;;4924987;28;92527;-82
2022/09/14 04:27:28;;;;;;;2.03;1.67;;;23.30;65.20;;;;;;4924261;28;92487;-82
2022/09/14 04:29:54;;;;;;;2.20;2.00;;;23.30;65.20;;;;;;4923628;28;94721;-82
2022/09/14 04:32:19;;;;;;;1.80;1.70;;;23.30;65.20;;;;;;4923466;28;93756;-82
2022/09/14 04:34:45;;;;;;;1.60;1.50;;;23.30;65.30;;;;;;4924432;28;92219;-82
2022/09/14 04:37:10;;;;;;;1.92;1.70;;;23.20;65.10;;;;;;4923459;28;92343;-82
2022/09/14 04:39:36;;;;;;;1.77;1.67;;;23.30;65.20;;;;;;4955920;28;94827;-82
2022/09/14 04:42:01;;;;;;;2.25;2.05;;;23.30;65.20;;;;;;4924676;28;97664;-82
2022/09/14 04:44:27;;;;;;;1.95;1.75;;;23.20;65.20;;;;;;4956544;28;92283;-82
2022/09/14 04:46:53;;;;;;;2.38;1.73;;;23.30;65.10;;;;;;4924817;28;91816;-82
2022/09/14 04:49:20;;;;;;;1.60;1.45;;;23.30;65.20;;;;;;4924229;28;93053;-82
2022/09/14 04:51:46;;;;;;;1.60;1.50;;;23.30;65.10;;;;;;4924003;28;93141;-81
2022/09/14 04:54:14;;;;;;;2.22;1.60;;;23.30;65.10;;;;;;4924388;28;93559;-82
2022/09/14 04:56:40;;;;;;;1.65;1.55;;;23.30;65.00;;;;;;4923679;28;92366;-82
2022/09/14 04:59:05;;;;;;;2.03;1.77;;;23.30;65.10;;;;;;4922132;28;92745;-82
2022/09/14 05:01:34;;;;;;;2.10;1.70;;;23.20;65.20;;;;;;4922302;28;93798;-82
2022/09/14 05:04:00;;;;;;;1.73;1.63;;;23.30;65.00;;;;;;4921937;28;92288;-82
2022/09/14 05:06:29;;;;;;;1.60;1.50;;;23.30;65.00;;;;;;4925477;28;92560;-82
2022/09/14 05:08:55;;;;;;;1.90;1.70;;;23.20;65.00;;;;;;4924100;28;92528;-82
2022/09/14 05:11:22;;;;;;;2.17;1.50;;;23.20;64.90;;;;;;4922482;28;93462;-82
2022/09/14 05:13:49;;;;;;;2.08;1.88;;;23.30;65.00;;;;;;4923440;28;92055;-82
2022/09/14 05:16:18;;;;;;;1.45;1.33;;;23.20;64.80;;;;;;4924260;28;92004;-81
2022/09/14 05:18:44;;;;;;;1.63;1.52;;;23.20;64.80;;;;;;4961489;28;96501;-81
2022/09/14 05:21:13;;;;;;;1.73;1.63;;;23.30;64.90;;;;;;4964116;28;94402;-82
2022/09/14 05:23:39;;;;;;;2.33;1.60;;;23.20;64.80;;;;;;4964973;28;92507;-81
2022/09/14 05:26:05;;;;;;;1.70;1.58;;;23.30;65.00;;;;;;4947205;28;92757;-81
2022/09/14 05:28:32;;;;;;;2.00;1.40;;;23.20;64.70;;;;;;4961619;28;92658;-81
2022/09/14 05:30:57;;;;;;;1.70;1.60;;;23.20;64.60;;;;;;4963368;28;93791;-82
2022/09/14 05:33:23;;;;;;;1.70;1.60;;;23.20;64.60;;;;;;4965045;28;92556;-82
2022/09/14 05:35:50;;;;;;;2.00;1.80;;;23.20;64.70;;;;;;4964282;28;91533;-81
2022/09/14 05:38:16;;;;;;;2.30;1.60;;;23.20;64.70;;;;;;4962332;28;93576;-82
2022/09/14 05:40:41;;;;;;;1.63;1.45;;;23.20;64.80;;;;;;4964195;28;93280;-81
2022/09/14 05:43:08;;;;;;;1.77;1.65;;;23.20;64.80;;;;;;4963185;28;93939;-81
2022/09/14 05:45:33;;;;;;;1.98;1.45;;;23.20;64.70;;;;;;4963134;28;92450;-82
2022/09/14 05:48:03;;;;;;;1.80;1.45;;;23.20;64.70;;;;;;4978673;28;96717;-82
2022/09/14 05:50:32;;;;;;;2.05;1.85;;;23.20;64.90;;;;;;4961952;28;93328;-81
2022/09/14 05:52:57;;;;;;;1.50;1.40;;;23.20;64.90;;;;;;4963581;28;92561;-81
2022/09/14 05:55:23;;;;;;;1.55;1.45;;;23.20;64.80;;;;;;4956306;28;92196;-81
2022/09/14 05:57:50;;;;;;;1.60;1.50;;;23.20;64.80;;;;;;4924844;28;93779;-82
2022/09/14 06:00:16;;;;;;;1.60;1.50;;;23.20;64.60;;;;;;4927053;28;92292;-82
2022/09/14 06:02:46;;;;;;;1.75;1.65;;;23.20;64.60;;;;;;4924202;28;92361;-81
2022/09/14 06:05:12;;;;;;;1.70;1.60;;;23.20;64.70;;;;;;4926563;28;92509;-82
2022/09/14 06:07:38;;;;;;;3.38;1.50;;;23.20;64.70;;;;;;4925520;28;94095;-81
2022/09/14 06:10:04;;;;;;;1.85;1.50;;;23.20;64.70;;;;;;4924959;28;93233;-81
2022/09/14 06:12:30;;;;;;;1.58;1.48;;;23.20;64.50;;;;;;4924781;28;91986;-81
2022/09/14 06:14:55;;;;;;;1.50;1.40;;;23.20;64.50;;;;;;4925840;28;92363;-80
2022/09/14 06:17:21;;;;;;;1.50;1.40;;;23.20;64.60;;;;;;4924283;28;94713;-81
2022/09/14 06:19:47;;;;;;;1.60;1.50;;;23.20;64.60;;;;;;4924528;28;93940;-81
2022/09/14 06:22:12;;;;;;;1.40;1.30;;;23.20;64.70;;;;;;4925284;28;92452;-81
2022/09/14 06:24:38;;;;;;;1.40;1.30;;;23.20;64.60;;;;;;4927414;28;91268;-80
2022/09/14 06:27:04;;;;;;;2.22;1.60;;;23.20;64.60;;;;;;4924103;28;92411;-81
2022/09/14 06:29:29;;;;;;;1.60;1.50;;;23.20;64.50;;;;;;4923876;28;93336;-81
2022/09/14 06:31:55;;;;;;;1.80;1.60;;;23.20;64.60;;;;;;4922136;28;93662;-82
2022/09/14 06:34:20;;;;;;;5.72;1.50;;;23.20;64.60;;;;;;4953204;28;92129;-80
2022/09/14 06:36:46;;;;;;;1.60;1.50;;;23.20;64.60;;;;;;4922852;28;93363;-82
2022/09/14 06:39:11;;;;;;;2.85;1.63;;;23.30;64.00;;;;;;4925863;28;92589;-81
2022/09/14 06:41:37;;;;;;;3.65;1.73;;;23.30;64.10;;;;;;4924475;28;92506;-82
2022/09/14 06:44:02;;;;;;;3.13;1.95;;;23.30;63.30;;;;;;4925187;28;92720;-80
2022/09/14 06:46:31;;;;;;;5.07;1.67;;;23.20;64.10;;;;;;4925525;28;93224;-81
2022/09/14 06:48:58;;;;;;;4.18;2.05;;;23.30;64.00;;;;;;4923081;28;93484;-84
2022/09/14 06:51:26;;;;;;;4.07;2.35;;;23.30;64.30;;;;;;4924435;28;92076;-84
2022/09/14 06:53:52;;;;;;;5.60;2.40;;;23.40;63.50;;;;;;4925718;28;92044;-83
2022/09/14 06:56:19;;;;;;;2.90;2.10;;;23.30;63.70;;;;;;4924330;28;93717;-83
2022/09/14 06:58:45;;;;;;;3.70;2.00;;;23.30;64.20;;;;;;4923115;28;93354;-83
2022/09/14 07:01:13;;;;;;;5.68;2.40;;;23.30;64.80;;;;;;4924130;28;92578;-83
2022/09/14 07:03:40;;;;;;;3.55;2.22;;;23.30;64.30;;;;;;4923592;28;92822;-83
2022/09/14 07:06:09;;;;;;;3.33;2.13;;;23.30;64.40;;;;;;4923947;28;95023;-82
2022/09/14 07:08:36;;;;;;;10.30;2.60;;;23.30;65.00;;;;;;4924619;28;93268;-82
2022/09/14 07:11:02;;;;;;;6.03;2.40;;;23.30;64.00;;;;;;4956680;28;92611;-82
2022/09/14 07:13:29;;;;;;;5.47;2.38;;;23.40;64.60;;;;;;4927985;28;91317;-83
2022/09/14 07:15:54;;;;;;;17.65;3.20;;;23.40;64.70;;;;;;4924970;28;93160;-81
2022/09/14 07:18:21;;;;;;;6.55;2.28;;;23.40;64.00;;;;;;4924110;28;93242;-82
2022/09/14 07:20:48;;;;;;;5.43;2.35;;;23.30;65.10;;;;;;4925438;28;93662;-82
2022/09/14 07:23:14;;;;;;;11.00;3.33;;;23.30;64.20;;;;;;4925573;28;92470;-81
2022/09/14 07:25:41;;;;;;;6.30;2.65;;;23.30;64.20;;;;;;4924322;28;93039;-82
2022/09/14 07:28:06;;;;;;;8.05;2.67;;;23.30;63.70;;;;;;4922474;28;93346;-82
2022/09/14 07:30:37;;;;;;;4.47;2.40;;;23.30;64.70;;;;;;4923466;28;92254;-81
2022/09/14 07:33:04;;;;;;;5.85;2.33;;;23.40;64.90;;;;;;4922796;28;92089;-82
2022/09/14 07:35:30;;;;;;;8.90;2.25;;;23.40;64.00;;;;;;4921015;28;92696;-82
2022/09/14 07:37:55;;;;;;;13.07;2.72;;;23.40;64.70;;;;;;4920896;28;92897;-86
2022/09/14 07:40:22;;;;;;;7.03;2.30;;;23.50;64.70;;;;;;4918892;28;92506;-83
2022/09/14 07:42:52;;;;;;;8.55;2.65;;;23.40;65.10;;;;;;4923450;28;94613;-83
2022/09/14 07:45:21;;;;;;;5.88;2.55;;;23.40;64.40;;;;;;4922210;28;95443;-84
2022/09/14 07:47:47;;;;;;;5.80;2.50;;;23.40;64.90;;;;;;4953907;28;94975;-85
2022/09/14 07:50:13;;;;;;;5.20;2.17;;;23.40;65.00;;;;;;4924625;28;92743;-83
2022/09/14 07:52:39;;;;;;;7.60;2.67;;;23.40;65.20;;;;;;4921250;28;92574;-82
2022/09/14 07:55:05;;;;;;;72.97;17.10;;;23.40;63.80;;;;;;4920134;28;92286;-84
2022/09/14 07:57:31;;;;;;;55.90;14.63;;;23.40;64.70;;;;;;4920954;28;93533;-84
2022/09/14 07:59:57;;;;;;;49.13;13.30;;;23.40;64.90;;;;;;4930886;28;92610;-83
2022/09/14 08:02:23;;;;;;;34.10;10.65;;;23.40;64.60;;;;;;4921946;28;91458;-84
2022/09/14 08:04:51;;;;;;;32.85;8.90;;;23.40;64.80;;;;;;4952377;28;96714;-84
2022/09/14 08:07:17;;;;;;;29.17;8.65;;;23.40;64.70;;;;;;4927629;28;95506;-83
2022/09/14 08:09:44;;;;;;;30.48;9.20;;;23.30;65.00;;;;;;4923993;28;93484;-84
2022/09/14 08:12:10;;;;;;;30.23;8.70;;;23.30;64.80;;;;;;4954584;28;94837;-84
2022/09/14 08:14:35;;;;;;;26.52;8.73;;;23.30;64.90;;;;;;4923683;28;92854;-84
2022/09/14 08:17:01;;;;;;;25.02;7.72;;;23.30;64.60;;;;;;4919774;28;93139;-83
2022/09/14 08:19:27;;;;;;;33.65;9.63;;;23.30;64.70;;;;;;4918615;28;93433;-83
2022/09/14 08:21:53;;;;;;;17.67;5.47;;;23.30;64.50;;;;;;4917425;28;93460;-83
2022/09/14 08:24:20;;;;;;;14.25;4.40;;;23.40;63.60;;;;;;4924124;28;93598;-84
2022/09/14 08:26:47;;;;;;;21.90;7.15;;;23.40;63.20;;;;;;4952902;28;93693;-84
2022/09/14 08:29:17;;;;;;;16.23;5.47;;;23.40;64.10;;;;;;4922906;28;94264;-84
2022/09/14 08:31:44;;;;;;;15.45;5.03;;;23.40;63.40;;;;;;4922144;28;92937;-84
2022/09/14 08:34:10;;;;;;;23.98;6.82;;;23.40;62.90;;;;;;4921579;28;95252;-83
2022/09/14 08:36:39;;;;;;;25.27;7.20;;;23.30;64.20;;;;;;4922073;28;94644;-85
2022/09/14 08:39:08;;;;;;;;;;;23.30;64.00;;;;;;4923206;28;93866;-84
2022/09/14 08:41:42;;;;;;;12.27;4.20;;;23.40;63.20;;;;;;4954613;28;92694;-84
2022/09/14 08:44:19;;;;;;;12.23;4.65;;;23.40;63.80;;;;;;4924093;28;92958;-83
2022/09/14 08:47:11;;;;;;;12.05;4.38;;;23.30;62.40;;;;;;4922521;28;93483;-84
2022/09/14 08:50:11;;;;;;;13.68;4.75;;;23.40;62.60;;;;;;4922770;28;92734;-84
2022/09/14 08:53:07;;;;;;;16.80;5.55;;;23.40;62.50;;;;;;4927386;28;92763;-84
2022/09/14 08:55:44;;;;;;;20.30;5.75;;;23.50;62.80;;;;;;4920167;28;93702;-84
2022/09/14 08:58:29;;;;;;;19.52;7.10;;;23.40;62.90;;;;;;4921544;28;93080;-84
2022/09/14 09:01:16;;;;;;;12.05;4.63;;;23.40;63.40;;;;;;4921865;28;93126;-83
2022/09/14 09:04:10;;;;;;;18.73;6.63;;;23.40;62.10;;;;;;4924169;28;92279;-83
2022/09/14 09:07:12;;;;;;;14.55;5.53;;;23.40;63.20;;;;;;4918994;28;92954;-82
2022/09/14 09:09:47;;;;;;;11.27;5.03;;;23.30;62.60;;;;;;4916148;28;97506;-85
2022/09/14 09:12:21;;;;;;;7.88;3.63;;;23.20;62.30;;;;;;4922242;28;92380;-83
2022/09/14 09:14:57;;;;;;;8.85;3.78;;;23.20;62.10;;;;;;4929057;28;92646;-82
2022/09/14 09:17:37;;;;;;;5.50;3.38;;;23.10;61.90;;;;;;4921314;28;94364;-82
2022/09/14 09:20:39;;;;;;;8.38;3.17;;;23.00;61.60;;;;;;4921646;28;93250;-82
2022/09/14 09:23:14;;;;;;;3.70;2.80;;;23.00;61.10;;;;;;4921794;28;92565;-82
2022/09/14 09:25:57;;;;;;;6.00;2.70;;;23.00;61.10;;;;;;4920955;28;92892;-83
2022/09/14 09:28:24;;;;;;;5.47;2.40;;;23.00;60.90;;;;;;4918878;28;94238;-82
2022/09/14 09:30:53;;;;;;;4.88;2.55;;;23.00;61.20;;;;;;4919997;28;93120;-83
2022/09/14 09:33:24;;;;;;;7.38;2.40;;;23.00;60.90;;;;;;4922739;28;92213;-82
2022/09/14 09:35:50;;;;;;;16.50;7.00;;;22.90;60.80;;;;;;4921361;28;94321;-81
2022/09/14 09:38:20;;;;;;;33.97;14.70;;;22.90;60.90;;;;;;4918999;28;93118;-82
2022/09/14 09:40:49;;;;;;;25.45;12.63;;;22.90;60.90;;;;;;4919460;28;93782;-82
2022/09/14 09:43:18;;;;;;;29.05;10.90;;;22.90;61.50;;;;;;4922359;28;92434;-82
2022/09/14 09:46:05;;;;;;;20.67;8.13;;;22.80;62.50;;;;;;4920430;28;91892;-81
2022/09/14 09:48:39;;;;;;;12.20;6.25;;;22.90;62.60;;;;;;4920165;28;93310;-82
2022/09/14 09:51:14;;;;;;;12.00;5.88;;;22.80;61.90;;;;;;4921726;28;97450;-80
2022/09/14 09:53:53;;;;;;;8.05;4.63;;;22.80;62.00;;;;;;4923867;28;93912;-81
2022/09/14 09:56:22;;;;;;;7.82;3.90;;;22.80;62.00;;;;;;4935180;28;92102;-81
2022/09/14 09:58:50;;;;;;;8.95;3.38;;;22.80;61.50;;;;;;4925709;28;93253;-82
2022/09/14 10:01:31;;;;;;;8.32;4.10;;;22.80;61.80;;;;;;4927290;28;92744;-82
2022/09/14 10:04:04;;;;;;;9.32;3.80;;;22.80;61.70;;;;;;4955851;28;93208;-82
2022/09/14 10:06:31;;;;;;;13.98;4.40;;;22.80;61.80;;;;;;4929144;28;93065;-82
2022/09/14 10:08:58;;;;;;;7.78;3.97;;;22.80;61.80;;;;;;4926772;28;93483;-82
2022/09/14 10:11:35;;;;;;;10.00;3.90;;;22.90;62.90;;;;;;4945352;28;91878;-82
2022/09/14 10:14:02;;;;;;;9.57;3.60;;;22.90;62.30;;;;;;4929783;28;92310;-82
2022/09/14 10:16:37;;;;;;;6.80;3.50;;;22.90;62.30;;;;;;4928632;28;92029;-82
2022/09/14 10:19:17;;;;;;;6.55;3.67;;;22.90;62.50;;;;;;4926588;28;94323;-81
2022/09/14 10:22:15;;;;;;;9.88;3.67;;;23.00;62.40;;;;;;4919019;28;94254;-82
2022/09/14 10:24:55;;;;;;;9.63;3.55;;;23.00;62.50;;;;;;4933963;28;92164;-83
2022/09/14 10:27:30;;;;;;;10.30;3.90;;;23.00;62.60;;;;;;4935387;28;91984;-83
2022/09/14 10:29:59;;;;;;;7.60;3.15;;;23.00;62.50;;;;;;4934971;28;94019;-81
2022/09/14 10:32:25;;;;;;;12.17;4.00;;;23.10;62.50;;;;;;4940038;28;96186;-83
2022/09/14 10:34:51;;;;;;;14.10;3.38;;;23.10;62.10;;;;;;4934342;28;92292;-84
2022/09/14 10:37:17;;;;;;;9.27;3.70;;;23.10;62.00;;;;;;4933713;28;91781;-84
2022/09/14 10:39:52;;;;;;;15.20;3.22;;;23.20;62.30;;;;;;4935252;28;93269;-84
2022/09/14 10:42:43;;;;;;;7.18;3.38;;;23.20;62.40;;;;;;4935184;28;92499;-85
2022/09/14 10:45:39;;;;;;;8.10;3.63;;;23.20;62.60;;;;;;4930966;28;93371;-85
2022/09/14 10:48:14;;;;;;;7.57;3.67;;;23.20;62.60;;;;;;4929298;28;92366;-85
2022/09/14 10:51:13;;;;;;;8.00;3.60;;;23.20;63.00;;;;;;4928974;28;93468;-84
2022/09/14 10:54:07;;;;;;;9.05;3.72;;;23.20;63.00;;;;;;4929101;28;92853;-85
2022/09/14 10:57:17;;;;;;;10.15;3.90;;;23.20;63.40;;;;;;4929785;28;92579;-85
2022/09/14 10:59:54;;;;;;;9.20;3.67;;;23.20;63.70;;;;;;4929521;28;92388;-84
2022/09/14 11:02:42;;;;;;;11.85;4.20;;;23.20;63.70;;;;;;4927778;28;93268;-84
2022/09/14 11:05:11;;;;;;;7.20;3.60;;;23.10;63.80;;;;;;4928773;28;93581;-84
2022/09/14 11:07:55;;;;;;;6.87;3.93;;;23.10;63.80;;;;;;4920309;28;93970;-85
2022/09/14 11:10:35;;;;;;;6.18;3.50;;;23.20;64.00;;;;;;4930221;28;95134;-84
2022/09/14 11:13:14;;;;;;;9.95;4.13;;;23.10;63.80;;;;;;4928996;28;94548;-84
2022/09/14 11:15:44;;;;;;;7.18;3.83;;;23.20;64.00;;;;;;4928664;28;94213;-84
2022/09/14 11:18:34;;;;;;;9.40;3.88;;;23.10;63.90;;;;;;4930346;28;92520;-84
2022/09/14 11:21:19;;;;;;;6.35;3.70;;;23.10;64.00;;;;;;4928891;28;92751;-84
2022/09/14 11:23:59;;;;;;;6.93;3.63;;;23.20;64.20;;;;;;4929417;28;93783;-84
2022/09/14 11:26:39;;;;;;;5.75;3.60;;;23.10;64.10;;;;;;4910908;28;96363;-83
2022/09/14 11:29:15;;;;;;;5.68;3.90;;;23.10;63.80;;;;;;4930290;28;92114;-84
2022/09/14 11:31:52;;;;;;;7.85;3.75;;;23.10;64.20;;;;;;4929226;28;91708;-82
2022/09/14 11:34:26;;;;;;;8.85;3.72;;;23.20;64.00;;;;;;4925191;28;93297;-82
2022/09/14 11:36:58;;;;;;;8.60;3.55;;;23.20;64.00;;;;;;4928030;28;93674;-82
2022/09/14 11:39:32;;;;;;;6.80;4.07;;;23.20;64.00;;;;;;4929820;28;93538;-82
2022/09/14 11:42:03;;;;;;;5.90;3.67;;;23.20;64.60;;;;;;4927139;28;92480;-81
2022/09/14 11:44:36;;;;;;;7.25;3.85;;;23.10;64.70;;;;;;4925492;28;93619;-83
2022/09/14 11:47:17;;;;;;;7.10;4.32;;;23.10;64.60;;;;;;4924423;28;93183;-84
2022/09/14 11:50:07;;;;;;;9.65;4.50;;;23.10;64.30;;;;;;4923995;28;92278;-84
2022/09/14 11:52:33;;;;;;;7.00;4.03;;;23.10;64.20;;;;;;4927285;28;92610;-83
2022/09/14 11:55:00;;;;;;;6.90;3.40;;;23.10;64.40;;;;;;4956877;28;95042;-83
2022/09/14 11:57:27;;;;;;;10.48;3.70;;;23.10;64.10;;;;;;4925989;28;93105;-83
2022/09/14 12:00:24;;;;;;;5.25;3.22;;;23.10;64.10;;;;;;4926503;28;92470;-83
2022/09/14 12:02:58;;;;;;;4.18;3.17;;;23.00;64.00;;;;;;4924269;28;92344;-83
2022/09/14 12:05:28;;;;;;;4.43;3.28;;;23.00;63.90;;;;;;4923774;28;94733;-81
2022/09/14 12:08:24;;;;;;;5.47;3.35;;;23.00;63.80;;;;;;4923925;28;93268;-82
2022/09/14 12:11:08;;;;;;;4.10;2.75;;;23.00;63.80;;;;;;4924574;28;92678;-83
2022/09/14 12:13:35;;;;;;;4.07;2.75;;;23.00;63.70;;;;;;4925933;28;92736;-83
2022/09/14 12:16:03;;;;;;;4.57;2.95;;;23.00;63.50;;;;;;4925353;28;93216;-83
2022/09/14 12:18:30;;;;;;;3.60;2.80;;;22.90;63.30;;;;;;4924234;28;92667;-83
2022/09/14 12:21:01;;;;;;;3.38;2.20;;;23.00;63.30;;;;;;4925187;28;94615;-83
2022/09/14 12:23:50;;;;;;;4.57;3.50;;;23.00;63.20;;;;;;4924800;28;91635;-83
2022/09/14 12:26:16;;;;;;;3.67;2.85;;;23.00;62.80;;;;;;4924067;28;93077;-83
2022/09/14 12:28:51;;;;;;;3.38;2.83;;;23.00;62.60;;;;;;4924756;28;92883;-83
2022/09/14 12:31:43;;;;;;;3.10;2.80;;;23.00;62.40;;;;;;4924680;28;95382;-83
2022/09/14 12:34:17;;;;;;;3.83;2.85;;;23.00;61.90;;;;;;4954537;28;94536;-83
2022/09/14 12:36:59;;;;;;;4.70;2.70;;;22.90;61.80;;;;;;4924141;28;94255;-83
2022/09/14 12:39:30;;;;;;;3.05;2.75;;;23.00;61.70;;;;;;4955774;28;96387;-83
2022/09/14 12:42:04;;;;;;;3.25;2.75;;;22.90;61.50;;;;;;4923335;28;92860;-84
2022/09/14 12:44:31;;;;;;;2.90;2.60;;;22.90;61.50;;;;;;4956691;28;93828;-86
2022/09/14 12:47:17;;;;;;;3.67;2.70;;;22.90;61.60;;;;;;4925179;28;95533;-86
2022/09/14 12:49:43;;;;;;;5.82;2.60;;;22.90;61.70;;;;;;4933895;28;93318;-82
2022/09/14 12:52:33;;;;;;;3.75;2.67;;;22.90;62.00;;;;;;4938544;28;92427;-83
2022/09/14 12:55:41;;;;;;;7.90;2.67;;;23.00;62.10;;;;;;4915286;28;93689;-83
2022/09/14 12:58:30;;;;;;;5.40;2.67;;;23.00;62.00;;;;;;4934873;28;94104;-83
2022/09/14 13:01:15;;;;;;;5.20;2.60;;;23.10;62.10;;;;;;4924309;28;93826;-83
2022/09/14 13:03:49;;;;;;;6.07;3.22;;;23.10;62.30;;;;;;4922852;28;92166;-81
2022/09/14 13:06:16;;;;;;;3.08;2.70;;;23.10;62.20;;;;;;4926941;28;94134;-82
2022/09/14 13:08:44;;;;;;;5.13;2.50;;;23.10;62.20;;;;;;4923946;28;93570;-83
2022/09/14 13:11:22;;;;;;;4.20;2.60;;;23.10;62.20;;;;;;4923502;28;95391;-83